createdAt,value
2022-11-29T00:01:43.886Z,9.50
2022-11-29T00:04:12.651Z,9.48
2022-11-29T00:06:40.789Z,9.47
2022-11-29T00:09:14.383Z,9.43
2022-11-29T00:12:01.726Z,9.55
2022-11-29T00:14:30.410Z,9.48
2022-11-29T00:17:02.416Z,9.44
2022-11-29T00:19:32.256Z,9.25
2022-11-29T00:22:01.482Z,9.37
2022-11-29T00:24:33.779Z,9.49
2022-11-29T00:27:03.483Z,9.30
2022-11-29T00:29:31.893Z,9.27
2022-11-29T00:32:00.659Z,9.18
2022-11-29T00:34:29.514Z,9.22
2022-11-29T00:36:57.994Z,8.95
2022-11-29T00:39:26.661Z,8.91
2022-11-29T00:41:56.895Z,8.95
2022-11-29T00:44:25.117Z,8.88
2022-11-29T00:46:53.400Z,9.01
2022-11-29T00:49:21.829Z,9.12
2022-11-29T00:51:50.144Z,9.02
2022-11-29T00:54:19.173Z,8.98
2022-11-29T00:56:47.832Z,9.17
2022-11-29T00:59:17.588Z,9.20
2022-11-29T01:01:45.833Z,9.15
2022-11-29T01:04:14.162Z,9.11
2022-11-29T01:06:42.400Z,9.13
2022-11-29T01:09:10.642Z,9.29
2022-11-29T01:11:38.770Z,9.05
2022-11-29T01:14:07.135Z,9.17
2022-11-29T01:16:36.887Z,8.83
2022-11-29T01:19:07.429Z,8.78
2022-11-29T01:21:35.721Z,8.74
2022-11-29T01:24:04.204Z,9.00
2022-11-29T01:26:33.255Z,9.04
2022-11-29T01:29:01.799Z,8.87
2022-11-29T01:31:32.277Z,9.11
2022-11-29T01:34:04.234Z,9.17
2022-11-29T01:36:32.926Z,9.40
2022-11-29T01:39:02.573Z,9.30
2022-11-29T01:41:34.067Z,9.05
2022-11-29T01:44:07.137Z,9.16
2022-11-29T01:46:41.605Z,8.96
2022-11-29T01:49:17.166Z,8.99
2022-11-29T01:51:51.890Z,8.87
2022-11-29T01:54:21.061Z,8.88
2022-11-29T01:56:51.335Z,8.82
2022-11-29T01:59:24.600Z,8.81
2022-11-29T02:01:53.144Z,8.86
2022-11-29T02:04:22.756Z,9.00
2022-11-29T02:06:51.333Z,8.66
2022-11-29T02:09:22.541Z,9.01
2022-11-29T02:12:11.405Z,9.01
2022-11-29T02:15:19.776Z,8.98
2022-11-29T02:18:02.500Z,8.94
2022-11-29T02:21:12.917Z,9.16
2022-11-29T02:24:25.566Z,9.34
2022-11-29T02:27:38.355Z,9.39
2022-11-29T02:30:20.599Z,9.27
2022-11-29T02:33:58.902Z,9.23
2022-11-29T02:36:53.207Z,9.34
2022-11-29T02:40:01.699Z,9.33
2022-11-29T02:43:10.225Z,9.19
2022-11-29T02:45:57.602Z,9.24
2022-11-29T02:48:51.038Z,9.21
2022-11-29T02:51:27.228Z,9.26
2022-11-29T02:54:03.148Z,9.11
2022-11-29T02:56:38.939Z,9.24
2022-11-29T02:59:16.732Z,9.11
2022-11-29T03:01:58.992Z,9.25
2022-11-29T03:04:35.049Z,9.32
2022-11-29T03:07:14.460Z,9.28
2022-11-29T03:09:48.704Z,9.31
2022-11-29T03:12:28.508Z,9.39
2022-11-29T03:15:08.703Z,9.52
2022-11-29T03:17:49.492Z,9.56
2022-11-29T03:20:36.589Z,9.53
2022-11-29T03:23:23.005Z,9.33
2022-11-29T03:25:58.814Z,9.27
2022-11-29T03:28:32.048Z,9.34
2022-11-29T03:31:11.720Z,9.14
2022-11-29T03:33:51.989Z,9.05
2022-11-29T03:36:34.802Z,9.03
2022-11-29T03:39:10.728Z,9.02
2022-11-29T03:41:46.540Z,9.03
2022-11-29T03:44:19.584Z,9.11
2022-11-29T03:46:58.259Z,8.93
2022-11-29T03:49:33.520Z,9.01
2022-11-29T03:52:12.274Z,8.97
2022-11-29T03:54:56.573Z,9.18
2022-11-29T03:57:35.665Z,9.27
2022-11-29T04:00:08.844Z,9.04
2022-11-29T04:03:30.401Z,9.36
2022-11-29T04:06:20.031Z,9.24
2022-11-29T04:09:21.596Z,9.49
2022-11-29T04:12:36.304Z,9.67
2022-11-29T04:15:51.946Z,9.66
2022-11-29T04:19:21.847Z,9.49
2022-11-29T04:22:43.657Z,9.60
2022-11-29T04:26:04.370Z,9.48
2022-11-29T04:29:25.057Z,9.67
2022-11-29T04:32:17.446Z,9.61
2022-11-29T04:35:11.597Z,9.36
2022-11-29T04:38:07.849Z,9.13
2022-11-29T04:41:02.346Z,9.30
2022-11-29T04:43:52.838Z,9.21
2022-11-29T04:46:56.249Z,9.02
2022-11-29T04:49:37.364Z,9.29
2022-11-29T04:52:29.624Z,8.96
2022-11-29T04:55:09.212Z,9.10
2022-11-29T04:57:48.648Z,9.31
2022-11-29T05:00:22.055Z,9.29
2022-11-29T05:02:58.591Z,9.10
2022-11-29T05:05:36.397Z,9.01
2022-11-29T05:08:25.463Z,9.10
2022-11-29T05:11:06.551Z,8.89
2022-11-29T05:13:47.062Z,8.89
2022-11-29T05:16:38.582Z,8.99
2022-11-29T05:19:39.331Z,9.00
2022-11-29T05:22:24.935Z,9.05
2022-11-29T05:25:08.182Z,9.22
2022-11-29T05:27:47.501Z,9.16
2022-11-29T05:30:21.729Z,9.18
2022-11-29T05:33:05.985Z,9.09
2022-11-29T05:35:52.484Z,9.07
2022-11-29T05:38:51.352Z,8.96
2022-11-29T05:41:41.924Z,8.86
2022-11-29T05:44:16.716Z,9.16
2022-11-29T05:46:56.179Z,9.31
2022-11-29T05:49:39.206Z,9.50
2022-11-29T05:52:24.963Z,9.32
2022-11-29T05:55:11.406Z,9.26
2022-11-29T05:57:48.323Z,9.37
2022-11-29T06:00:19.403Z,9.32
2022-11-29T06:03:00.449Z,9.35
2022-11-29T06:05:37.676Z,9.52
2022-11-29T06:08:13.448Z,9.20
2022-11-29T06:10:53.757Z,9.21
2022-11-29T06:13:36.075Z,9.30
2022-11-29T06:16:36.334Z,9.01
2022-11-29T06:19:52.990Z,8.94
2022-11-29T06:22:56.666Z,9.00
2022-11-29T06:25:47.100Z,8.77
2022-11-29T06:28:31.536Z,8.90
2022-11-29T06:31:13.076Z,8.72
2022-11-29T06:33:56.798Z,8.62
2022-11-29T06:36:32.977Z,8.53
2022-11-29T06:39:02.153Z,8.40
2022-11-29T06:41:31.363Z,8.63
2022-11-29T06:44:00.465Z,8.58
2022-11-29T06:46:45.907Z,8.82
2022-11-29T06:49:22.760Z,8.72
2022-11-29T06:52:08.299Z,8.74
2022-11-29T06:54:56.005Z,8.72
2022-11-29T06:57:35.887Z,8.77
2022-11-29T07:00:12.044Z,8.73
2022-11-29T07:03:07.883Z,8.83
2022-11-29T07:05:37.076Z,9.08
2022-11-29T07:08:14.133Z,8.81
2022-11-29T07:10:43.909Z,8.95
2022-11-29T07:13:14.650Z,9.11
2022-11-29T07:15:50.154Z,9.02
2022-11-29T07:18:28.823Z,8.67
2022-11-29T07:21:12.682Z,8.71
2022-11-29T07:23:52.478Z,8.70
2022-11-29T07:26:30.443Z,8.64
2022-11-29T07:29:21.042Z,8.95
2022-11-29T07:32:04.374Z,8.93
2022-11-29T07:34:41.503Z,8.83
2022-11-29T07:37:22.032Z,8.78
2022-11-29T07:40:00.642Z,8.64
2022-11-29T07:42:42.923Z,8.81
2022-11-29T07:45:19.322Z,8.74
2022-11-29T07:47:49.823Z,8.83
2022-11-29T07:50:18.851Z,8.95
2022-11-29T07:52:47.964Z,9.30
2022-11-29T07:55:21.251Z,9.35
2022-11-29T07:57:50.681Z,9.17
2022-11-29T08:00:20.922Z,9.20
2022-11-29T08:02:51.843Z,9.10
2022-11-29T08:05:20.373Z,9.13
2022-11-29T08:07:48.855Z,9.16
2022-11-29T08:10:19.015Z,8.76
2022-11-29T08:12:50.689Z,9.10
2022-11-29T08:15:20.570Z,9.04
2022-11-29T08:17:49.257Z,9.10
2022-11-29T08:20:19.582Z,9.09
2022-11-29T08:22:56.050Z,9.23
2022-11-29T08:25:28.507Z,9.22
2022-11-29T08:27:57.270Z,9.01
2022-11-29T08:30:26.081Z,9.23
2022-11-29T08:32:54.488Z,9.40
2022-11-29T08:35:25.402Z,9.09
2022-11-29T08:37:55.132Z,8.93
2022-11-29T08:40:25.305Z,9.28
2022-11-29T08:42:57.795Z,9.14
2022-11-29T08:45:26.184Z,9.18
2022-11-29T08:47:54.478Z,9.01
2022-11-29T08:50:22.796Z,8.98
2022-11-29T08:53:21.547Z,9.02
2022-11-29T08:55:51.174Z,8.85
2022-11-29T08:58:21.399Z,9.02
2022-11-29T09:00:49.831Z,9.16
2022-11-29T09:03:35.563Z,9.03
2022-11-29T09:06:12.252Z,9.11
2022-11-29T09:08:43.622Z,8.99
2022-11-29T09:11:17.754Z,9.24
2022-11-29T09:13:48.856Z,9.08
2022-11-29T09:16:20.799Z,9.12
2022-11-29T09:18:52.156Z,9.08
2022-11-29T09:21:20.718Z,9.06
2022-11-29T09:23:48.973Z,9.03
2022-11-29T09:26:21.328Z,8.88
2022-11-29T09:28:49.922Z,9.01
2022-11-29T09:31:20.033Z,9.01
2022-11-29T09:33:49.071Z,9.05
2022-11-29T09:36:17.548Z,9.07
2022-11-29T09:38:45.921Z,9.31
2022-11-29T09:41:48.544Z,9.50
2022-11-29T09:44:29.639Z,9.47
2022-11-29T09:47:06.780Z,9.05
2022-11-29T09:49:56.598Z,9.18
2022-11-29T09:52:42.907Z,9.02
2022-11-29T09:55:39.435Z,9.26
2022-11-29T09:58:16.570Z,8.99
2022-11-29T10:00:51.332Z,9.13
2022-11-29T10:03:26.534Z,9.16
2022-11-29T10:06:00.867Z,9.37
2022-11-29T10:08:35.075Z,9.34
2022-11-29T10:11:18.274Z,9.27
2022-11-29T10:13:53.443Z,9.37
2022-11-29T10:16:29.927Z,9.30
2022-11-29T10:19:08.348Z,9.49
2022-11-29T10:21:39.566Z,9.40
2022-11-29T10:24:17.387Z,9.30
2022-11-29T10:26:46.735Z,9.31
2022-11-29T10:29:18.106Z,9.43
2022-11-29T10:31:49.588Z,9.31
2022-11-29T10:34:21.631Z,9.29
2022-11-29T10:36:53.641Z,9.21
2022-11-29T10:39:28.661Z,9.33
2022-11-29T10:42:00.935Z,9.16
2022-11-29T10:44:33.004Z,9.13
2022-11-29T10:47:07.810Z,9.22
2022-11-29T10:49:40.187Z,9.25
2022-11-29T10:52:19.242Z,9.36
2022-11-29T10:54:49.684Z,9.30
2022-11-29T10:57:20.876Z,9.35
2022-11-29T11:00:04.515Z,9.46
2022-11-29T11:02:33.847Z,9.53
2022-11-29T11:05:03.174Z,9.64
2022-11-29T11:07:35.537Z,9.49
2022-11-29T11:10:19.601Z,9.63
2022-11-29T11:13:04.006Z,9.85
2022-11-29T11:15:33.958Z,10.06
2022-11-29T11:18:05.502Z,9.97
2022-11-29T11:20:36.155Z,9.91
2022-11-29T11:23:08.695Z,9.84
2022-11-29T11:25:40.000Z,9.80
2022-11-29T11:28:22.453Z,9.85
2022-11-29T11:30:56.700Z,9.87
2022-11-29T11:33:28.601Z,9.80
2022-11-29T11:36:07.609Z,9.77
2022-11-29T11:38:37.183Z,9.99
2022-11-29T11:41:45.850Z,10.07
2022-11-29T11:44:48.702Z,10.04
2022-11-29T11:47:21.958Z,10.27
2022-11-29T11:49:57.059Z,10.04
2022-11-29T11:52:33.803Z,10.03
2022-11-29T11:55:23.226Z,9.69
2022-11-29T11:58:07.651Z,9.76
2022-11-29T12:01:03.389Z,10.08
2022-11-29T12:03:52.513Z,9.91
2022-11-29T12:06:38.240Z,10.06
2022-11-29T12:09:18.763Z,9.85
2022-11-29T12:12:00.083Z,9.84
2022-11-29T12:14:41.331Z,10.02
2022-11-29T12:17:21.013Z,9.83
2022-11-29T12:20:18.067Z,9.98
2022-11-29T12:23:04.060Z,9.72
2022-11-29T12:25:41.322Z,9.93
2022-11-29T12:28:19.827Z,9.84
2022-11-29T12:31:03.048Z,9.84
2022-11-29T12:33:44.572Z,9.84
2022-11-29T12:36:25.963Z,9.98
2022-11-29T12:39:19.393Z,9.76
2022-11-29T12:41:58.943Z,9.71
2022-11-29T12:44:42.859Z,9.79
2022-11-29T12:47:40.185Z,9.99
2022-11-29T12:50:40.241Z,10.07
2022-11-29T12:53:27.848Z,10.04
2022-11-29T12:56:10.847Z,9.89
2022-11-29T12:58:55.875Z,9.91
2022-11-29T13:01:37.618Z,9.82
2022-11-29T13:04:22.633Z,9.97
2022-11-29T13:06:58.830Z,9.71
2022-11-29T13:09:54.102Z,9.69
2022-11-29T13:12:29.170Z,9.80
2022-11-29T13:15:05.968Z,10.01
2022-11-29T13:17:41.050Z,9.84
2022-11-29T13:20:24.988Z,9.78
2022-11-29T13:22:58.440Z,10.05
2022-11-29T13:25:35.108Z,9.67
2022-11-29T13:28:07.016Z,9.61
2022-11-29T13:30:36.658Z,9.69
2022-11-29T13:33:15.375Z,9.63
2022-11-29T13:35:51.531Z,9.91
2022-11-29T13:38:27.355Z,9.70
2022-11-29T13:41:03.793Z,9.64
2022-11-29T13:43:40.548Z,9.79
2022-11-29T13:46:24.492Z,9.82
2022-11-29T13:48:54.907Z,9.33
2022-11-29T13:51:32.759Z,9.41
2022-11-29T13:54:04.574Z,9.35
2022-11-29T13:56:43.210Z,9.25
2022-11-29T13:59:20.344Z,9.37
2022-11-29T14:01:53.010Z,9.51
2022-11-29T14:04:28.048Z,9.40
2022-11-29T14:07:06.499Z,9.54
2022-11-29T14:09:59.602Z,9.12
2022-11-29T14:12:36.956Z,9.31
2022-11-29T14:15:22.428Z,9.43
2022-11-29T14:17:56.266Z,9.05
2022-11-29T14:20:59.264Z,9.20
2022-11-29T14:23:42.437Z,9.13
2022-11-29T14:26:30.597Z,9.29
2022-11-29T14:29:01.549Z,9.41
2022-11-29T14:31:55.246Z,9.26
2022-11-29T14:34:43.424Z,9.34
2022-11-29T14:37:49.571Z,9.21
2022-11-29T14:40:30.028Z,9.36
2022-11-29T14:43:00.590Z,9.36
2022-11-29T14:45:33.957Z,9.23
2022-11-29T14:48:03.455Z,9.41
2022-11-29T14:50:36.495Z,9.33
2022-11-29T14:53:06.962Z,9.48
2022-11-29T14:55:38.263Z,9.30
2022-11-29T14:58:24.565Z,9.36
2022-11-29T15:01:11.050Z,9.76
2022-11-29T15:03:51.105Z,9.62
2022-11-29T15:06:27.856Z,9.26
2022-11-29T15:09:04.655Z,9.41
2022-11-29T15:11:51.486Z,9.56
2022-11-29T15:14:33.262Z,9.31
2022-11-29T15:17:24.447Z,9.26
2022-11-29T15:20:19.126Z,9.07
2022-11-29T15:22:52.361Z,9.33
2022-11-29T15:25:23.762Z,9.30
2022-11-29T15:27:54.899Z,9.17
2022-11-29T15:30:34.201Z,9.38
2022-11-29T15:33:08.330Z,9.28
2022-11-29T15:35:38.175Z,9.28
2022-11-29T15:38:06.979Z,9.33
2022-11-29T15:40:39.739Z,9.19
2022-11-29T15:43:22.312Z,9.02
2022-11-29T15:45:52.211Z,9.15
2022-11-29T15:48:24.064Z,9.26
2022-11-29T15:51:09.446Z,9.33
2022-11-29T15:53:41.862Z,9.29
2022-11-29T15:56:19.111Z,9.24
2022-11-29T15:58:49.123Z,9.25
2022-11-29T16:01:22.213Z,9.20
2022-11-29T16:03:56.677Z,8.97
2022-11-29T16:06:30.765Z,9.16
2022-11-29T16:08:59.750Z,8.96
2022-11-29T16:11:32.340Z,9.27
2022-11-29T16:14:14.317Z,9.09
2022-11-29T16:16:45.364Z,9.04
2022-11-29T16:19:30.694Z,9.01
2022-11-29T16:22:22.548Z,9.03
2022-11-29T16:25:06.613Z,9.18
2022-11-29T16:27:37.108Z,9.14
2022-11-29T16:30:07.639Z,9.13
2022-11-29T16:32:38.869Z,9.22
2022-11-29T16:35:22.005Z,9.13
2022-11-29T16:37:50.551Z,9.21
2022-11-29T16:40:23.712Z,9.26
2022-11-29T16:43:23.666Z,9.22
2022-11-29T16:46:33.665Z,9.30
2022-11-29T16:49:04.769Z,9.27
2022-11-29T16:51:47.962Z,9.54
2022-11-29T16:54:27.710Z,9.34
2022-11-29T16:56:57.940Z,9.43
2022-11-29T16:59:28.583Z,9.25
2022-11-29T17:01:57.519Z,9.28
2022-11-29T17:04:26.461Z,9.31
2022-11-29T17:06:57.399Z,9.14
2022-11-29T17:09:28.307Z,9.21
2022-11-29T17:11:59.676Z,9.17
2022-11-29T17:14:28.342Z,9.15
2022-11-29T17:16:57.045Z,9.01
2022-11-29T17:19:26.055Z,9.04
2022-11-29T17:21:54.239Z,9.07
2022-11-29T17:24:25.028Z,9.05
2022-11-29T17:26:53.222Z,8.98
2022-11-29T17:29:21.377Z,8.74
2022-11-29T17:31:53.150Z,8.83
2022-11-29T17:34:21.611Z,8.67
2022-11-29T17:36:51.099Z,8.65
2022-11-29T17:39:21.770Z,8.73
2022-11-29T17:41:51.525Z,8.59
2022-11-29T17:44:20.745Z,8.64
2022-11-29T17:46:49.026Z,8.41
2022-11-29T17:49:18.558Z,8.52
2022-11-29T17:51:52.380Z,8.74
2022-11-29T17:54:21.909Z,8.66
2022-11-29T17:56:51.963Z,8.86
2022-11-29T17:59:20.395Z,8.75
2022-11-29T18:01:48.861Z,8.46
2022-11-29T18:04:17.361Z,8.34
2022-11-29T18:06:49.595Z,8.32
2022-11-29T18:09:19.290Z,8.53
2022-11-29T18:11:50.454Z,8.57
2022-11-29T18:14:23.683Z,8.59
2022-11-29T18:16:53.318Z,8.70
2022-11-29T18:19:23.736Z,8.79
2022-11-29T18:21:52.931Z,8.91
2022-11-29T18:24:21.374Z,8.75
2022-11-29T18:26:49.721Z,8.94
2022-11-29T18:29:20.084Z,8.71
2022-11-29T18:31:48.853Z,8.96
2022-11-29T18:34:17.225Z,9.13
2022-11-29T18:36:48.523Z,9.10
2022-11-29T18:39:19.104Z,8.67
2022-11-29T18:41:49.499Z,8.79
2022-11-29T18:44:22.044Z,8.78
2022-11-29T18:46:50.294Z,8.65
2022-11-29T18:49:19.299Z,8.65
2022-11-29T18:51:49.018Z,8.81
2022-11-29T18:54:19.677Z,8.82
2022-11-29T18:56:51.592Z,8.87
2022-11-29T18:59:22.894Z,8.79
2022-11-29T19:01:51.263Z,8.64
2022-11-29T19:04:21.598Z,8.52
2022-11-29T19:06:50.295Z,8.74
2022-11-29T19:09:21.641Z,8.50
2022-11-29T19:11:50.439Z,8.52
2022-11-29T19:14:20.910Z,8.72
2022-11-29T19:16:51.079Z,8.60
2022-11-29T19:19:19.907Z,8.82
2022-11-29T19:21:49.013Z,8.62
2022-11-29T19:24:19.437Z,8.37
2022-11-29T19:26:50.237Z,8.61
2022-11-29T19:29:20.307Z,8.55
2022-11-29T19:31:50.195Z,8.68
2022-11-29T19:34:18.358Z,8.62
2022-11-29T19:36:46.496Z,8.61
2022-11-29T19:39:17.181Z,8.62
2022-11-29T19:41:47.460Z,8.59
2022-11-29T19:44:15.702Z,8.63
2022-11-29T19:46:48.601Z,8.55
2022-11-29T19:49:19.122Z,8.44
2022-11-29T19:51:47.324Z,8.49
2022-11-29T19:54:15.523Z,8.04
2022-11-29T19:56:43.854Z,7.96
2022-11-29T19:59:14.711Z,8.03
2022-11-29T20:01:44.678Z,7.96
2022-11-29T20:04:16.645Z,8.10
2022-11-29T20:06:46.865Z,8.00
2022-11-29T20:09:15.411Z,7.92
2022-11-29T20:11:44.746Z,7.99
2022-11-29T20:14:14.491Z,7.99
2022-11-29T20:16:45.891Z,8.04
2022-11-29T20:19:18.109Z,8.08
2022-11-29T20:21:48.720Z,8.20
2022-11-29T20:24:19.310Z,8.10
2022-11-29T20:26:49.703Z,8.17
2022-11-29T20:29:19.212Z,8.14
2022-11-29T20:31:50.950Z,7.87
2022-11-29T20:34:20.979Z,7.94
2022-11-29T20:37:25.718Z,7.43
2022-11-29T20:40:02.839Z,7.39
2022-11-29T20:42:53.895Z,7.43
2022-11-29T20:45:25.279Z,7.47
2022-11-29T20:47:59.538Z,7.46
2022-11-29T20:50:31.907Z,7.52
2022-11-29T20:53:17.974Z,7.57
2022-11-29T20:55:48.255Z,7.62
2022-11-29T20:58:19.357Z,7.68
2022-11-29T21:00:48.248Z,7.75
2022-11-29T21:03:19.748Z,7.85
2022-11-29T21:05:48.472Z,7.72
2022-11-29T21:08:18.857Z,7.67
2022-11-29T21:10:47.263Z,7.62
2022-11-29T21:13:18.380Z,7.63
2022-11-29T21:15:48.157Z,7.71
2022-11-29T21:18:23.647Z,7.72
2022-11-29T21:21:08.761Z,7.77
2022-11-29T21:23:55.784Z,7.70
2022-11-29T21:26:28.729Z,7.65
2022-11-29T21:29:17.219Z,7.66
2022-11-29T21:31:46.786Z,7.64
2022-11-29T21:34:16.895Z,7.61
2022-11-29T21:36:47.583Z,7.55
2022-11-29T21:39:17.783Z,7.25
2022-11-29T21:41:46.143Z,6.92
2022-11-29T21:44:15.672Z,6.96
2022-11-29T21:46:45.055Z,6.92
2022-11-29T21:49:13.307Z,6.83
2022-11-29T21:51:46.028Z,6.78
2022-11-29T21:54:14.117Z,6.71
2022-11-29T21:56:42.551Z,6.74
2022-11-29T21:59:10.830Z,6.73
2022-11-29T22:01:39.245Z,6.53
2022-11-29T22:04:07.491Z,6.43
2022-11-29T22:06:36.932Z,6.34
2022-11-29T22:09:07.634Z,6.22
2022-11-29T22:11:36.431Z,6.21
2022-11-29T22:14:15.899Z,6.40
2022-11-29T22:16:49.031Z,6.54
2022-11-29T22:19:20.709Z,6.63
2022-11-29T22:21:52.432Z,6.82
2022-11-29T22:24:24.558Z,6.88
2022-11-29T22:26:55.613Z,7.07
2022-11-29T22:29:24.676Z,7.08
2022-11-29T22:31:56.577Z,7.22
2022-11-29T22:34:27.074Z,7.20
2022-11-29T22:36:56.004Z,7.24
2022-11-29T22:39:25.861Z,7.26
2022-11-29T22:41:55.340Z,7.48
2022-11-29T22:44:25.551Z,7.65
2022-11-29T22:46:54.429Z,7.63
2022-11-29T22:49:22.885Z,7.28
2022-11-29T22:51:52.455Z,7.37
2022-11-29T22:54:20.844Z,7.19
2022-11-29T22:56:50.605Z,7.12
2022-11-29T22:59:19.159Z,7.15
2022-11-29T23:01:47.728Z,7.11
2022-11-29T23:04:17.832Z,7.07
2022-11-29T23:06:47.795Z,6.95
2022-11-29T23:09:20.227Z,7.03
2022-11-29T23:11:56.304Z,6.76
2022-11-29T23:14:25.512Z,7.17
2022-11-29T23:16:54.195Z,7.15
2022-11-29T23:19:22.838Z,6.95
2022-11-29T23:21:56.346Z,6.76
2022-11-29T23:24:25.159Z,7.12
2022-11-29T23:26:56.101Z,7.03
2022-11-29T23:29:25.611Z,6.81
2022-11-29T23:31:53.977Z,7.09
2022-11-29T23:34:22.847Z,7.17
2022-11-29T23:36:53.230Z,7.01
2022-11-29T23:39:22.000Z,7.01
2022-11-29T23:41:50.515Z,7.05
2022-11-29T23:44:20.570Z,6.96
2022-11-29T23:46:48.698Z,6.85
2022-11-29T23:49:16.951Z,6.83
2022-11-29T23:51:46.748Z,6.99
2022-11-29T23:54:15.541Z,7.05
2022-11-29T23:56:46.260Z,7.19
2022-11-29T23:59:14.706Z,6.95
